createdAt,value
2019-02-08T00:03:45.193Z,5.40
2019-02-08T00:07:48.620Z,5.40
2019-02-08T00:11:52.066Z,5.50
2019-02-08T00:15:55.556Z,5.50
2019-02-08T00:19:59.000Z,5.50
2019-02-08T00:24:02.598Z,5.60
2019-02-08T00:28:06.107Z,5.60
2019-02-08T00:32:09.554Z,5.60
2019-02-08T00:36:13.039Z,5.50
2019-02-08T00:40:18.620Z,5.50
2019-02-08T00:44:22.055Z,5.50
2019-02-08T00:48:25.481Z,5.60
2019-02-08T00:52:28.916Z,5.60
2019-02-08T00:56:32.339Z,5.60
2019-02-08T01:00:35.845Z,5.60
2019-02-08T01:04:39.276Z,5.70
2019-02-08T01:08:42.714Z,5.70
2019-02-08T01:12:46.602Z,5.80
2019-02-08T01:16:50.589Z,5.80
2019-02-08T01:20:54.028Z,5.90
2019-02-08T01:24:58.129Z,6.00
2019-02-08T01:29:01.565Z,6.00
2019-02-08T01:33:05.238Z,6.00
2019-02-08T01:37:08.652Z,6.00
2019-02-08T01:41:12.085Z,6.10
2019-02-08T01:45:21.515Z,6.10
2019-02-08T01:49:24.953Z,6.10
2019-02-08T01:53:28.392Z,6.10
2019-02-08T01:57:31.813Z,6.10
2019-02-08T02:01:35.316Z,6.10
2019-02-08T02:05:38.909Z,6.10
2019-02-08T02:09:42.336Z,6.10
2019-02-08T02:13:45.775Z,6.00
2019-02-08T02:17:49.201Z,6.00
2019-02-08T02:21:52.628Z,6.00
2019-02-08T02:25:56.060Z,5.90
2019-02-08T02:29:59.506Z,5.90
2019-02-08T02:34:02.953Z,5.90
2019-02-08T02:38:07.613Z,5.90
2019-02-08T02:42:11.050Z,5.80
2019-02-08T02:46:14.478Z,5.80
2019-02-08T02:50:18.743Z,5.80
2019-02-08T02:54:23.663Z,5.90
2019-02-08T02:58:27.082Z,5.90
2019-02-08T03:02:30.575Z,5.90
2019-02-08T03:06:34.026Z,5.90
2019-02-08T03:10:37.528Z,5.90
2019-02-08T03:14:40.947Z,6.00
2019-02-08T03:18:44.377Z,6.00
2019-02-08T03:22:48.246Z,6.10
2019-02-08T03:26:51.680Z,6.10
2019-02-08T03:30:56.693Z,6.10
2019-02-08T03:35:00.203Z,6.10
2019-02-08T03:39:05.186Z,6.10
2019-02-08T03:43:08.963Z,6.10
2019-02-08T03:47:12.384Z,6.10
2019-02-08T03:51:15.832Z,6.10
2019-02-08T03:55:21.494Z,6.10
2019-02-08T03:59:24.919Z,6.10
2019-02-08T04:03:28.348Z,6.10
2019-02-08T04:07:31.780Z,6.10
2019-02-08T04:11:35.216Z,6.20
2019-02-08T04:15:38.730Z,6.10
2019-02-08T04:19:42.147Z,6.10
2019-02-08T04:23:45.579Z,6.10
2019-02-08T04:27:49.011Z,6.10
2019-02-08T04:31:52.439Z,6.10
2019-02-08T04:35:55.885Z,6.10
2019-02-08T04:39:59.316Z,6.20
2019-02-08T04:44:02.758Z,6.20
2019-02-08T04:48:06.260Z,6.20
2019-02-08T04:52:09.693Z,6.20
2019-02-08T04:56:13.132Z,6.20
2019-02-08T05:00:19.860Z,6.20
2019-02-08T05:04:23.284Z,6.20
2019-02-08T05:08:26.707Z,6.20
2019-02-08T05:12:30.145Z,6.20
2019-02-08T05:16:33.634Z,6.20
2019-02-08T05:20:37.066Z,6.40
2019-02-08T05:24:45.801Z,6.30
2019-02-08T05:28:45.724Z,6.20
2019-02-08T05:32:49.156Z,6.20
2019-02-08T05:36:52.577Z,6.10
2019-02-08T05:40:56.007Z,6.10
2019-02-08T05:44:59.436Z,6.00
2019-02-08T05:49:02.870Z,6.00
2019-02-08T05:53:06.368Z,6.00
2019-02-08T05:57:09.789Z,5.90
2019-02-08T06:01:15.778Z,5.80
2019-02-08T06:05:19.787Z,5.80
2019-02-08T06:09:23.223Z,5.70
2019-02-08T06:13:26.669Z,5.70
2019-02-08T06:17:30.078Z,5.70
2019-02-08T06:21:33.508Z,5.70
2019-02-08T06:25:37.213Z,5.80
2019-02-08T06:29:40.684Z,5.80
2019-02-08T06:33:44.210Z,5.80
2019-02-08T06:37:47.714Z,5.90
2019-02-08T06:41:51.145Z,5.90
2019-02-08T06:45:54.589Z,5.90
2019-02-08T06:49:58.022Z,5.90
2019-02-08T06:54:01.444Z,6.00
2019-02-08T06:58:10.737Z,6.00
2019-02-08T07:02:15.809Z,6.10
2019-02-08T07:06:29.881Z,6.10
2019-02-08T07:10:34.959Z,6.20
2019-02-08T07:14:45.753Z,6.30
2019-02-08T07:18:56.549Z,6.30
2019-02-08T07:23:19.625Z,6.30
2019-02-08T07:27:41.205Z,6.40
2019-02-08T07:32:02.663Z,6.40
2019-02-08T07:36:07.800Z,6.40
2019-02-08T07:40:30.596Z,6.40
2019-02-08T07:44:43.387Z,6.40
2019-02-08T07:48:48.532Z,6.40
2019-02-08T07:53:10.312Z,6.40
2019-02-08T07:57:15.524Z,6.50
2019-02-08T08:01:35.590Z,6.60
2019-02-08T08:05:53.685Z,6.60
2019-02-08T08:10:11.805Z,6.70
2019-02-08T08:14:20.479Z,6.70
2019-02-08T08:18:25.621Z,6.70
2019-02-08T08:22:46.665Z,6.70
2019-02-08T08:26:55.424Z,6.90
2019-02-08T08:31:05.828Z,7.00
2019-02-08T08:35:31.829Z,7.10
2019-02-08T08:40:11.424Z,7.30
2019-02-08T08:44:34.377Z,7.40
2019-02-08T08:48:52.837Z,7.60
2019-02-08T08:53:31.029Z,7.60
2019-02-08T08:57:43.203Z,7.70
2019-02-08T09:02:04.880Z,7.80
2019-02-08T09:06:27.824Z,7.80
2019-02-08T09:10:37.096Z,8.10
2019-02-08T09:15:18.385Z,8.30
2019-02-08T09:19:27.809Z,8.30
2019-02-08T09:23:39.896Z,8.30
2019-02-08T09:28:05.793Z,8.30
2019-02-08T09:32:29.670Z,8.40
2019-02-08T09:36:59.900Z,8.50
2019-02-08T09:41:15.373Z,8.50
2019-02-08T09:45:42.781Z,8.60
2019-02-08T09:50:23.724Z,8.70
2019-02-08T09:54:42.464Z,8.80
2019-02-08T09:59:21.953Z,8.80
2019-02-08T10:03:44.842Z,8.90
2019-02-08T10:08:24.822Z,9.00
2019-02-08T10:12:49.281Z,9.10
2019-02-08T10:17:16.901Z,9.10
2019-02-08T10:21:58.176Z,9.10
2019-02-08T10:26:27.316Z,9.20
2019-02-08T10:30:57.837Z,9.20
2019-02-08T10:35:37.677Z,9.20
2019-02-08T10:39:55.809Z,9.20
2019-02-08T10:44:24.652Z,9.30
2019-02-08T10:48:47.684Z,9.30
2019-02-08T10:53:19.604Z,9.30
2019-02-08T10:57:37.985Z,9.30
2019-02-08T11:02:13.264Z,9.40
2019-02-08T11:06:42.297Z,9.40
2019-02-08T11:11:14.413Z,9.40
2019-02-08T11:15:52.568Z,9.40
2019-02-08T11:19:56.356Z,9.50
2019-02-08T11:23:59.801Z,9.60
2019-02-08T11:28:03.228Z,9.60
2019-02-08T11:32:07.642Z,9.70
2019-02-08T11:36:11.213Z,9.70
2019-02-08T11:40:20.507Z,9.70
2019-02-08T11:44:24.179Z,9.80
2019-02-08T11:48:27.686Z,9.90
2019-02-08T11:52:31.117Z,10.00
2019-02-08T11:56:34.540Z,10.10
2019-02-08T12:00:39.621Z,10.20
2019-02-08T12:04:43.878Z,10.30
2019-02-08T12:08:47.395Z,10.60
2019-02-08T12:12:50.823Z,10.90
2019-02-08T12:16:54.252Z,11.00
2019-02-08T12:20:57.694Z,11.00
2019-02-08T12:25:01.159Z,11.00
2019-02-08T12:29:05.261Z,11.10
2019-02-08T12:33:08.753Z,11.10
2019-02-08T12:37:12.212Z,11.10
2019-02-08T12:41:15.644Z,11.20
2019-02-08T12:45:19.686Z,11.20
2019-02-08T12:49:23.136Z,11.10
2019-02-08T12:53:26.562Z,11.20
2019-02-08T12:57:30.017Z,11.20
2019-02-08T13:01:37.793Z,11.20
2019-02-08T13:05:38.625Z,11.10
2019-02-08T13:09:42.060Z,11.20
2019-02-08T13:13:45.484Z,11.20
2019-02-08T13:17:48.982Z,11.30
2019-02-08T13:21:52.416Z,11.50
2019-02-08T13:25:55.853Z,11.60
2019-02-08T13:29:59.285Z,11.60
2019-02-08T13:34:02.710Z,11.60
2019-02-08T13:38:06.145Z,11.50
2019-02-08T13:42:09.666Z,11.40
2019-02-08T13:46:13.116Z,11.30
2019-02-08T13:50:22.024Z,11.30
2019-02-08T13:54:25.513Z,11.20
2019-02-08T13:58:28.943Z,11.10
2019-02-08T14:02:32.392Z,11.00
2019-02-08T14:06:35.827Z,10.80
2019-02-08T14:10:39.310Z,10.80
2019-02-08T14:14:42.733Z,10.70
2019-02-08T14:18:46.180Z,10.60
2019-02-08T14:22:49.621Z,10.60
2019-02-08T14:26:53.117Z,10.50
2019-02-08T14:30:56.685Z,10.50
2019-02-08T14:35:00.213Z,10.50
2019-02-08T14:39:05.591Z,10.40
2019-02-08T14:43:09.105Z,10.40
2019-02-08T14:47:12.743Z,10.40
2019-02-08T14:51:16.158Z,10.50
2019-02-08T14:55:19.732Z,10.50
2019-02-08T14:59:23.297Z,10.60
2019-02-08T15:03:26.750Z,10.70
2019-02-08T15:07:30.182Z,10.70
2019-02-08T15:11:33.635Z,10.80
2019-02-08T15:15:37.128Z,10.90
2019-02-08T15:19:40.570Z,10.90
2019-02-08T15:23:44.016Z,10.90
2019-02-08T15:27:47.669Z,10.90
2019-02-08T15:31:51.101Z,10.80
2019-02-08T15:35:54.535Z,10.80
2019-02-08T15:39:58.152Z,10.70
2019-02-08T15:44:01.669Z,10.70
2019-02-08T15:48:05.750Z,10.60
2019-02-08T15:52:09.244Z,10.60
2019-02-08T15:56:13.728Z,10.50
2019-02-08T16:00:23.496Z,10.50
2019-02-08T16:04:26.921Z,10.40
2019-02-08T16:08:30.377Z,10.30
2019-02-08T16:12:33.801Z,10.20
2019-02-08T16:16:37.304Z,10.10
2019-02-08T16:20:41.576Z,10.00
2019-02-08T16:24:45.009Z,9.90
2019-02-08T16:28:48.477Z,9.90
2019-02-08T16:32:51.896Z,9.80
2019-02-08T16:37:03.081Z,9.70
2019-02-08T16:41:00.554Z,9.70
2019-02-08T16:45:07.056Z,9.60
2019-02-08T16:49:10.496Z,9.50
2019-02-08T16:53:13.983Z,9.50
2019-02-08T16:57:17.417Z,9.40
2019-02-08T17:01:20.922Z,9.30
2019-02-08T17:05:25.801Z,9.30
2019-02-08T17:09:29.231Z,9.20
2019-02-08T17:13:34.094Z,9.20
2019-02-08T17:17:37.604Z,9.20
2019-02-08T17:21:41.033Z,9.10
2019-02-08T17:25:44.464Z,9.10
2019-02-08T17:29:47.887Z,9.00
2019-02-08T17:33:51.315Z,8.90
2019-02-08T17:37:54.757Z,8.90
2019-02-08T17:41:58.193Z,8.90
2019-02-08T17:46:01.636Z,8.80
2019-02-08T17:50:07.960Z,8.80
2019-02-08T17:54:11.391Z,8.80
2019-02-08T17:58:14.824Z,8.80
2019-02-08T18:02:18.252Z,8.70
2019-02-08T18:06:21.688Z,8.60
2019-02-08T18:10:26.847Z,8.60
2019-02-08T18:14:30.359Z,8.60
2019-02-08T18:18:33.792Z,8.60
2019-02-08T18:22:37.236Z,8.60
2019-02-08T18:26:40.664Z,8.50
2019-02-08T18:30:44.090Z,8.50
2019-02-08T18:34:47.699Z,8.40
2019-02-08T18:38:51.133Z,8.40
2019-02-08T18:42:54.925Z,8.40
2019-02-08T18:46:58.677Z,8.40
2019-02-08T18:51:03.754Z,8.40
2019-02-08T18:55:07.683Z,8.40
2019-02-08T18:59:11.112Z,8.40
2019-02-08T19:03:14.641Z,8.30
2019-02-08T19:07:18.073Z,8.30
2019-02-08T19:11:21.517Z,8.30
2019-02-08T19:15:25.779Z,8.20
2019-02-08T19:19:29.214Z,8.20
2019-02-08T19:23:32.651Z,8.10
2019-02-08T19:27:36.058Z,8.00
2019-02-08T19:31:39.496Z,8.00
2019-02-08T19:35:42.928Z,8.00
2019-02-08T19:39:46.365Z,7.90
2019-02-08T19:43:49.805Z,7.90
2019-02-08T19:47:53.226Z,7.80
2019-02-08T19:51:56.727Z,7.80
2019-02-08T19:56:00.238Z,7.80
2019-02-08T20:00:12.582Z,7.80
2019-02-08T20:04:16.008Z,7.80
2019-02-08T20:08:19.435Z,8.10
2019-02-08T20:12:22.847Z,7.90
2019-02-08T20:16:26.284Z,7.90
2019-02-08T20:20:29.946Z,7.80
2019-02-08T20:24:33.551Z,7.70
2019-02-08T20:28:42.234Z,7.70
2019-02-08T20:32:42.145Z,7.60
2019-02-08T20:36:45.617Z,7.50
2019-02-08T20:40:50.688Z,7.50
2019-02-08T20:44:54.133Z,7.40
2019-02-08T20:48:57.558Z,7.40
2019-02-08T20:53:01.739Z,7.40
2019-02-08T20:57:06.604Z,7.30
2019-02-08T21:01:10.880Z,7.30
2019-02-08T21:05:14.760Z,7.20
2019-02-08T21:09:18.205Z,7.20
2019-02-08T21:13:22.593Z,7.10
2019-02-08T21:17:26.085Z,7.10
2019-02-08T21:21:29.520Z,7.10
2019-02-08T21:25:35.049Z,7.00
2019-02-08T21:29:38.477Z,7.00
2019-02-08T21:33:42.085Z,7.00
2019-02-08T21:37:45.663Z,7.00
2019-02-08T21:41:49.088Z,7.00
2019-02-08T21:45:52.511Z,6.90
2019-02-08T21:49:55.949Z,6.90
2019-02-08T21:53:59.381Z,6.90
2019-02-08T21:58:02.824Z,6.90
2019-02-08T22:02:06.587Z,6.90
2019-02-08T22:06:10.468Z,6.90
2019-02-08T22:10:15.645Z,6.90
2019-02-08T22:14:19.153Z,6.80
2019-02-08T22:18:22.720Z,6.80
2019-02-08T22:22:26.161Z,6.80
2019-02-08T22:26:29.576Z,6.80
2019-02-08T22:30:33.400Z,6.70
2019-02-08T22:34:36.847Z,6.70
2019-02-08T22:38:40.344Z,6.70
2019-02-08T22:42:43.851Z,6.70
2019-02-08T22:46:47.279Z,6.60
2019-02-08T22:50:50.705Z,6.60
2019-02-08T22:54:54.140Z,6.50
2019-02-08T22:58:57.578Z,6.50
2019-02-08T23:03:01.005Z,6.50
2019-02-08T23:07:05.242Z,6.40
2019-02-08T23:11:08.678Z,6.30
2019-02-08T23:15:12.447Z,6.30
2019-02-08T23:19:15.881Z,6.30
2019-02-08T23:23:19.300Z,6.30
2019-02-08T23:27:22.738Z,6.20
2019-02-08T23:31:26.242Z,6.20
2019-02-08T23:35:30.039Z,6.10
2019-02-08T23:39:33.539Z,6.00
2019-02-08T23:43:36.965Z,6.00
2019-02-08T23:47:40.472Z,6.00
2019-02-08T23:51:43.913Z,5.90
2019-02-08T23:55:47.340Z,5.80
2019-02-08T23:59:50.789Z,5.80
